sensor_id;sensor_type;location;lat;lon;timestamp;P1;durP1;ratioP1;P2;durP2;ratioP2
20411;SDS011;10365;52.578;8.138;2024-01-30T00:01:17;25.90;;;13.63;;
20411;SDS011;10365;52.578;8.138;2024-01-30T00:03:42;24.45;;;13.18;;
20411;SDS011;10365;52.578;8.138;2024-01-30T00:06:08;21.08;;;13.05;;
20411;SDS011;10365;52.578;8.138;2024-01-30T00:08:33;28.40;;;13.93;;
20411;SDS011;10365;52.578;8.138;2024-01-30T00:10:58;21.75;;;13.00;;
20411;SDS011;10365;52.578;8.138;2024-01-30T00:13:24;21.60;;;12.73;;
20411;SDS011;10365;52.578;8.138;2024-01-30T00:15:49;27.15;;;13.18;;
20411;SDS011;10365;52.578;8.138;2024-01-30T00:18:14;21.63;;;12.98;;
20411;SDS011;10365;52.578;8.138;2024-01-30T00:20:40;21.13;;;12.98;;
20411;SDS011;10365;52.578;8.138;2024-01-30T00:23:05;23.40;;;13.63;;
20411;SDS011;10365;52.578;8.138;2024-01-30T00:25:30;21.02;;;13.98;;
20411;SDS011;10365;52.578;8.138;2024-01-30T00:27:56;21.80;;;13.40;;
20411;SDS011;10365;52.578;8.138;2024-01-30T00:30:21;23.60;;;13.57;;
20411;SDS011;10365;52.578;8.138;2024-01-30T00:32:47;21.73;;;12.68;;
20411;SDS011;10365;52.578;8.138;2024-01-30T00:35:12;20.48;;;13.20;;
20411;SDS011;10365;52.578;8.138;2024-01-30T00:37:37;21.33;;;13.63;;
20411;SDS011;10365;52.578;8.138;2024-01-30T00:40:03;20.30;;;13.05;;
20411;SDS011;10365;52.578;8.138;2024-01-30T00:42:28;24.25;;;13.30;;
20411;SDS011;10365;52.578;8.138;2024-01-30T00:44:54;24.50;;;14.25;;
20411;SDS011;10365;52.578;8.138;2024-01-30T00:47:19;28.65;;;14.43;;
20411;SDS011;10365;52.578;8.138;2024-01-30T00:49:44;21.00;;;13.88;;
20411;SDS011;10365;52.578;8.138;2024-01-30T00:52:10;22.55;;;13.02;;
20411;SDS011;10365;52.578;8.138;2024-01-30T00:54:35;24.67;;;14.35;;
20411;SDS011;10365;52.578;8.138;2024-01-30T00:57:00;28.58;;;13.90;;
20411;SDS011;10365;52.578;8.138;2024-01-30T00:59:25;26.25;;;14.43;;
20411;SDS011;10365;52.578;8.138;2024-01-30T01:01:52;23.35;;;13.93;;
20411;SDS011;10365;52.578;8.138;2024-01-30T01:04:17;23.55;;;13.50;;
20411;SDS011;10365;52.578;8.138;2024-01-30T01:06:43;21.88;;;13.70;;
20411;SDS011;10365;52.578;8.138;2024-01-30T01:09:10;24.55;;;13.70;;
20411;SDS011;10365;52.578;8.138;2024-01-30T01:11:36;24.02;;;14.00;;
20411;SDS011;10365;52.578;8.138;2024-01-30T01:14:03;22.60;;;13.85;;
20411;SDS011;10365;52.578;8.138;2024-01-30T01:16:28;24.20;;;13.65;;
20411;SDS011;10365;52.578;8.138;2024-01-30T01:18:53;23.08;;;13.48;;
20411;SDS011;10365;52.578;8.138;2024-01-30T01:21:18;20.27;;;13.18;;
20411;SDS011;10365;52.578;8.138;2024-01-30T01:23:44;22.17;;;13.50;;
20411;SDS011;10365;52.578;8.138;2024-01-30T01:26:09;25.98;;;13.70;;
20411;SDS011;10365;52.578;8.138;2024-01-30T01:28:35;24.98;;;12.77;;
20411;SDS011;10365;52.578;8.138;2024-01-30T01:31:00;26.05;;;14.25;;
20411;SDS011;10365;52.578;8.138;2024-01-30T01:33:30;25.35;;;13.35;;
20411;SDS011;10365;52.578;8.138;2024-01-30T01:35:57;22.88;;;13.57;;
20411;SDS011;10365;52.578;8.138;2024-01-30T01:38:22;26.05;;;14.18;;
20411;SDS011;10365;52.578;8.138;2024-01-30T01:40:49;29.58;;;13.48;;
20411;SDS011;10365;52.578;8.138;2024-01-30T01:43:14;22.95;;;12.70;;
20411;SDS011;10365;52.578;8.138;2024-01-30T01:45:40;25.65;;;13.90;;
20411;SDS011;10365;52.578;8.138;2024-01-30T01:48:05;24.00;;;13.48;;
20411;SDS011;10365;52.578;8.138;2024-01-30T01:50:31;26.00;;;13.50;;
20411;SDS011;10365;52.578;8.138;2024-01-30T01:52:56;25.58;;;13.38;;
20411;SDS011;10365;52.578;8.138;2024-01-30T01:55:21;20.55;;;13.93;;
20411;SDS011;10365;52.578;8.138;2024-01-30T01:57:48;21.45;;;14.02;;
20411;SDS011;10365;52.578;8.138;2024-01-30T02:00:14;22.85;;;13.50;;
20411;SDS011;10365;52.578;8.138;2024-01-30T02:02:40;21.73;;;13.02;;
20411;SDS011;10365;52.578;8.138;2024-01-30T02:05:07;25.40;;;13.57;;
20411;SDS011;10365;52.578;8.138;2024-01-30T02:07:33;22.15;;;12.95;;
20411;SDS011;10365;52.578;8.138;2024-01-30T02:09:58;22.17;;;13.07;;
20411;SDS011;10365;52.578;8.138;2024-01-30T02:12:23;23.45;;;14.05;;
20411;SDS011;10365;52.578;8.138;2024-01-30T02:14:48;21.63;;;13.18;;
20411;SDS011;10365;52.578;8.138;2024-01-30T02:17:15;25.63;;;14.18;;
20411;SDS011;10365;52.578;8.138;2024-01-30T02:19:40;23.55;;;13.48;;
20411;SDS011;10365;52.578;8.138;2024-01-30T02:22:05;23.27;;;13.63;;
20411;SDS011;10365;52.578;8.138;2024-01-30T02:24:31;20.05;;;12.90;;
20411;SDS011;10365;52.578;8.138;2024-01-30T02:26:56;22.73;;;14.05;;
20411;SDS011;10365;52.578;8.138;2024-01-30T02:29:22;20.77;;;12.32;;
20411;SDS011;10365;52.578;8.138;2024-01-30T02:31:47;26.33;;;15.27;;
20411;SDS011;10365;52.578;8.138;2024-01-30T02:34:13;22.55;;;13.82;;
20411;SDS011;10365;52.578;8.138;2024-01-30T02:36:38;25.20;;;14.20;;
20411;SDS011;10365;52.578;8.138;2024-01-30T02:39:03;26.23;;;13.57;;
20411;SDS011;10365;52.578;8.138;2024-01-30T02:41:29;21.90;;;14.00;;
20411;SDS011;10365;52.578;8.138;2024-01-30T02:43:54;24.13;;;14.80;;
20411;SDS011;10365;52.578;8.138;2024-01-30T02:46:19;25.85;;;14.07;;
20411;SDS011;10365;52.578;8.138;2024-01-30T02:48:44;23.98;;;13.70;;
20411;SDS011;10365;52.578;8.138;2024-01-30T02:51:10;24.15;;;13.20;;
20411;SDS011;10365;52.578;8.138;2024-01-30T02:53:35;22.23;;;13.07;;
20411;SDS011;10365;52.578;8.138;2024-01-30T02:56:02;23.15;;;13.75;;
20411;SDS011;10365;52.578;8.138;2024-01-30T02:58:27;25.63;;;13.48;;
20411;SDS011;10365;52.578;8.138;2024-01-30T03:00:52;23.38;;;13.48;;
20411;SDS011;10365;52.578;8.138;2024-01-30T03:03:18;20.63;;;13.43;;
20411;SDS011;10365;52.578;8.138;2024-01-30T03:05:43;25.60;;;13.75;;
20411;SDS011;10365;52.578;8.138;2024-01-30T03:08:08;25.67;;;13.18;;
20411;SDS011;10365;52.578;8.138;2024-01-30T03:10:34;28.50;;;13.40;;
20411;SDS011;10365;52.578;8.138;2024-01-30T03:12:59;22.05;;;13.25;;
20411;SDS011;10365;52.578;8.138;2024-01-30T03:15:24;27.95;;;14.05;;
20411;SDS011;10365;52.578;8.138;2024-01-30T03:17:49;21.83;;;13.43;;
20411;SDS011;10365;52.578;8.138;2024-01-30T03:20:15;19.33;;;12.02;;
20411;SDS011;10365;52.578;8.138;2024-01-30T03:22:41;21.63;;;13.13;;
20411;SDS011;10365;52.578;8.138;2024-01-30T03:25:06;26.83;;;13.55;;
20411;SDS011;10365;52.578;8.138;2024-01-30T03:27:31;20.63;;;12.52;;
20411;SDS011;10365;52.578;8.138;2024-01-30T03:29:57;20.35;;;12.32;;
20411;SDS011;10365;52.578;8.138;2024-01-30T03:32:22;19.48;;;12.35;;
20411;SDS011;10365;52.578;8.138;2024-01-30T03:34:47;22.25;;;12.60;;
20411;SDS011;10365;52.578;8.138;2024-01-30T03:37:13;18.67;;;11.73;;
20411;SDS011;10365;52.578;8.138;2024-01-30T03:39:38;25.48;;;13.18;;
20411;SDS011;10365;52.578;8.138;2024-01-30T03:42:04;21.40;;;12.63;;
20411;SDS011;10365;52.578;8.138;2024-01-30T03:44:29;27.27;;;12.95;;
20411;SDS011;10365;52.578;8.138;2024-01-30T03:46:54;22.17;;;12.05;;
20411;SDS011;10365;52.578;8.138;2024-01-30T03:49:19;19.20;;;11.48;;
20411;SDS011;10365;52.578;8.138;2024-01-30T03:51:45;19.77;;;11.07;;
20411;SDS011;10365;52.578;8.138;2024-01-30T03:54:12;18.75;;;11.63;;
20411;SDS011;10365;52.578;8.138;2024-01-30T03:56:37;26.50;;;11.70;;
20411;SDS011;10365;52.578;8.138;2024-01-30T03:59:03;21.70;;;11.75;;
20411;SDS011;10365;52.578;8.138;2024-01-30T04:01:31;21.00;;;11.25;;
20411;SDS011;10365;52.578;8.138;2024-01-30T04:03:56;19.45;;;11.82;;
20411;SDS011;10365;52.578;8.138;2024-01-30T04:06:21;19.63;;;11.38;;
20411;SDS011;10365;52.578;8.138;2024-01-30T04:08:47;19.20;;;11.55;;
20411;SDS011;10365;52.578;8.138;2024-01-30T04:11:12;19.33;;;11.20;;
20411;SDS011;10365;52.578;8.138;2024-01-30T04:13:37;19.95;;;11.52;;
20411;SDS011;10365;52.578;8.138;2024-01-30T04:16:03;25.33;;;11.80;;
20411;SDS011;10365;52.578;8.138;2024-01-30T04:18:28;20.30;;;11.88;;
20411;SDS011;10365;52.578;8.138;2024-01-30T04:20:54;22.40;;;12.43;;
20411;SDS011;10365;52.578;8.138;2024-01-30T04:23:19;19.58;;;11.32;;
20411;SDS011;10365;52.578;8.138;2024-01-30T04:25:44;20.88;;;11.32;;
20411;SDS011;10365;52.578;8.138;2024-01-30T04:28:10;20.25;;;11.73;;
20411;SDS011;10365;52.578;8.138;2024-01-30T04:30:37;24.48;;;12.05;;
20411;SDS011;10365;52.578;8.138;2024-01-30T04:33:02;19.02;;;11.15;;
20411;SDS011;10365;52.578;8.138;2024-01-30T04:35:28;21.17;;;11.63;;
20411;SDS011;10365;52.578;8.138;2024-01-30T04:37:53;18.77;;;11.85;;
20411;SDS011;10365;52.578;8.138;2024-01-30T04:40:19;21.55;;;11.27;;
20411;SDS011;10365;52.578;8.138;2024-01-30T04:42:44;24.70;;;12.48;;
20411;SDS011;10365;52.578;8.138;2024-01-30T04:45:09;22.35;;;11.60;;
20411;SDS011;10365;52.578;8.138;2024-01-30T04:47:35;23.48;;;12.25;;
20411;SDS011;10365;52.578;8.138;2024-01-30T04:50:01;23.08;;;12.13;;
20411;SDS011;10365;52.578;8.138;2024-01-30T04:52:26;20.48;;;12.05;;
20411;SDS011;10365;52.578;8.138;2024-01-30T04:54:51;22.17;;;12.93;;
20411;SDS011;10365;52.578;8.138;2024-01-30T04:57:16;25.05;;;13.00;;
20411;SDS011;10365;52.578;8.138;2024-01-30T04:59:42;23.33;;;12.70;;
20411;SDS011;10365;52.578;8.138;2024-01-30T05:02:07;22.00;;;12.07;;
20411;SDS011;10365;52.578;8.138;2024-01-30T05:04:33;25.95;;;12.40;;
20411;SDS011;10365;52.578;8.138;2024-01-30T05:06:58;26.50;;;12.52;;
20411;SDS011;10365;52.578;8.138;2024-01-30T05:09:23;24.20;;;13.45;;
20411;SDS011;10365;52.578;8.138;2024-01-30T05:11:52;25.35;;;13.18;;
20411;SDS011;10365;52.578;8.138;2024-01-30T05:14:17;22.67;;;13.50;;
20411;SDS011;10365;52.578;8.138;2024-01-30T05:16:43;23.48;;;12.93;;
20411;SDS011;10365;52.578;8.138;2024-01-30T05:19:11;22.23;;;12.95;;
20411;SDS011;10365;52.578;8.138;2024-01-30T05:21:37;24.58;;;13.50;;
20411;SDS011;10365;52.578;8.138;2024-01-30T05:24:02;23.23;;;13.13;;
20411;SDS011;10365;52.578;8.138;2024-01-30T05:26:28;25.80;;;14.73;;
20411;SDS011;10365;52.578;8.138;2024-01-30T05:28:53;26.67;;;13.90;;
20411;SDS011;10365;52.578;8.138;2024-01-30T05:31:19;27.65;;;13.80;;
20411;SDS011;10365;52.578;8.138;2024-01-30T05:33:44;22.25;;;12.57;;
20411;SDS011;10365;52.578;8.138;2024-01-30T05:36:11;22.27;;;13.00;;
20411;SDS011;10365;52.578;8.138;2024-01-30T05:38:37;25.08;;;13.43;;
20411;SDS011;10365;52.578;8.138;2024-01-30T05:41:02;20.13;;;12.32;;
20411;SDS011;10365;52.578;8.138;2024-01-30T05:43:27;25.20;;;13.93;;
20411;SDS011;10365;52.578;8.138;2024-01-30T05:45:52;26.92;;;14.75;;
20411;SDS011;10365;52.578;8.138;2024-01-30T05:48:18;24.05;;;13.57;;
20411;SDS011;10365;52.578;8.138;2024-01-30T05:50:43;24.40;;;13.60;;
20411;SDS011;10365;52.578;8.138;2024-01-30T05:53:10;21.50;;;13.30;;
20411;SDS011;10365;52.578;8.138;2024-01-30T05:55:35;21.10;;;12.70;;
20411;SDS011;10365;52.578;8.138;2024-01-30T05:58:01;23.05;;;13.15;;
20411;SDS011;10365;52.578;8.138;2024-01-30T06:00:26;22.65;;;13.18;;
20411;SDS011;10365;52.578;8.138;2024-01-30T06:02:51;26.30;;;13.57;;
20411;SDS011;10365;52.578;8.138;2024-01-30T06:05:17;21.15;;;13.15;;
20411;SDS011;10365;52.578;8.138;2024-01-30T06:07:42;24.92;;;13.05;;
20411;SDS011;10365;52.578;8.138;2024-01-30T06:10:08;20.35;;;13.50;;
20411;SDS011;10365;52.578;8.138;2024-01-30T06:12:34;25.08;;;12.95;;
20411;SDS011;10365;52.578;8.138;2024-01-30T06:14:59;20.60;;;13.10;;
20411;SDS011;10365;52.578;8.138;2024-01-30T06:17:24;24.80;;;12.57;;
20411;SDS011;10365;52.578;8.138;2024-01-30T06:19:50;27.10;;;13.13;;
20411;SDS011;10365;52.578;8.138;2024-01-30T06:22:15;21.40;;;13.02;;
20411;SDS011;10365;52.578;8.138;2024-01-30T06:24:41;21.95;;;12.68;;
20411;SDS011;10365;52.578;8.138;2024-01-30T06:27:06;19.80;;;11.95;;
20411;SDS011;10365;52.578;8.138;2024-01-30T06:29:31;29.75;;;14.75;;
20411;SDS011;10365;52.578;8.138;2024-01-30T06:31:57;21.38;;;11.80;;
20411;SDS011;10365;52.578;8.138;2024-01-30T06:34:22;19.75;;;12.05;;
20411;SDS011;10365;52.578;8.138;2024-01-30T06:36:47;21.63;;;11.68;;
20411;SDS011;10365;52.578;8.138;2024-01-30T06:39:13;19.33;;;11.60;;
20411;SDS011;10365;52.578;8.138;2024-01-30T06:41:38;19.73;;;11.10;;
20411;SDS011;10365;52.578;8.138;2024-01-30T06:44:03;18.98;;;11.60;;
20411;SDS011;10365;52.578;8.138;2024-01-30T06:46:31;18.17;;;11.45;;
20411;SDS011;10365;52.578;8.138;2024-01-30T06:48:57;17.85;;;11.05;;
20411;SDS011;10365;52.578;8.138;2024-01-30T06:51:22;22.50;;;11.32;;
20411;SDS011;10365;52.578;8.138;2024-01-30T06:53:48;20.63;;;11.45;;
20411;SDS011;10365;52.578;8.138;2024-01-30T06:56:13;22.50;;;11.65;;
20411;SDS011;10365;52.578;8.138;2024-01-30T06:58:39;19.67;;;11.68;;
20411;SDS011;10365;52.578;8.138;2024-01-30T07:01:04;20.33;;;11.43;;
20411;SDS011;10365;52.578;8.138;2024-01-30T07:03:29;18.23;;;11.10;;
20411;SDS011;10365;52.578;8.138;2024-01-30T07:05:54;23.58;;;11.13;;
20411;SDS011;10365;52.578;8.138;2024-01-30T07:08:20;17.90;;;10.82;;
20411;SDS011;10365;52.578;8.138;2024-01-30T07:10:46;19.70;;;10.52;;
20411;SDS011;10365;52.578;8.138;2024-01-30T07:13:11;17.25;;;9.45;;
20411;SDS011;10365;52.578;8.138;2024-01-30T07:15:36;18.02;;;9.80;;
20411;SDS011;10365;52.578;8.138;2024-01-30T07:18:02;19.23;;;10.57;;
20411;SDS011;10365;52.578;8.138;2024-01-30T07:20:28;17.48;;;9.68;;
20411;SDS011;10365;52.578;8.138;2024-01-30T07:22:55;15.05;;;9.43;;
20411;SDS011;10365;52.578;8.138;2024-01-30T07:25:20;17.58;;;9.85;;
20411;SDS011;10365;52.578;8.138;2024-01-30T07:27:46;14.02;;;8.95;;
20411;SDS011;10365;52.578;8.138;2024-01-30T07:30:12;16.17;;;9.20;;
20411;SDS011;10365;52.578;8.138;2024-01-30T07:32:37;16.45;;;8.90;;
20411;SDS011;10365;52.578;8.138;2024-01-30T07:35:02;14.32;;;8.57;;
20411;SDS011;10365;52.578;8.138;2024-01-30T07:37:28;12.93;;;9.10;;
20411;SDS011;10365;52.578;8.138;2024-01-30T07:39:53;16.27;;;8.60;;
20411;SDS011;10365;52.578;8.138;2024-01-30T07:42:19;14.82;;;8.48;;
20411;SDS011;10365;52.578;8.138;2024-01-30T07:44:44;13.80;;;8.07;;
20411;SDS011;10365;52.578;8.138;2024-01-30T07:47:09;14.07;;;8.57;;
20411;SDS011;10365;52.578;8.138;2024-01-30T07:49:35;14.63;;;8.32;;
20411;SDS011;10365;52.578;8.138;2024-01-30T07:52:00;14.32;;;7.70;;
20411;SDS011;10365;52.578;8.138;2024-01-30T07:54:25;16.80;;;8.25;;
20411;SDS011;10365;52.578;8.138;2024-01-30T07:56:50;16.85;;;7.97;;
20411;SDS011;10365;52.578;8.138;2024-01-30T07:59:16;15.18;;;7.80;;
20411;SDS011;10365;52.578;8.138;2024-01-30T08:01:41;11.85;;;7.60;;
20411;SDS011;10365;52.578;8.138;2024-01-30T08:04:07;11.73;;;7.55;;
20411;SDS011;10365;52.578;8.138;2024-01-30T08:06:32;13.05;;;7.97;;
20411;SDS011;10365;52.578;8.138;2024-01-30T08:08:57;14.52;;;7.47;;
20411;SDS011;10365;52.578;8.138;2024-01-30T08:11:24;14.05;;;7.40;;
20411;SDS011;10365;52.578;8.138;2024-01-30T08:13:54;11.98;;;7.35;;
20411;SDS011;10365;52.578;8.138;2024-01-30T08:16:20;15.68;;;7.47;;
20411;SDS011;10365;52.578;8.138;2024-01-30T08:18:45;14.60;;;7.18;;
20411;SDS011;10365;52.578;8.138;2024-01-30T08:21:10;13.57;;;7.55;;
20411;SDS011;10365;52.578;8.138;2024-01-30T08:23:37;13.95;;;7.25;;
20411;SDS011;10365;52.578;8.138;2024-01-30T08:26:03;9.60;;;6.20;;
20411;SDS011;10365;52.578;8.138;2024-01-30T08:28:28;13.07;;;6.90;;
20411;SDS011;10365;52.578;8.138;2024-01-30T08:30:54;11.60;;;6.65;;
20411;SDS011;10365;52.578;8.138;2024-01-30T08:33:19;14.10;;;6.57;;
20411;SDS011;10365;52.578;8.138;2024-01-30T08:35:44;12.00;;;6.82;;
20411;SDS011;10365;52.578;8.138;2024-01-30T08:38:10;12.70;;;6.82;;
20411;SDS011;10365;52.578;8.138;2024-01-30T08:40:37;9.55;;;6.15;;
20411;SDS011;10365;52.578;8.138;2024-01-30T08:43:02;14.25;;;6.57;;
20411;SDS011;10365;52.578;8.138;2024-01-30T08:45:29;11.77;;;7.00;;
20411;SDS011;10365;52.578;8.138;2024-01-30T08:47:55;11.88;;;6.03;;
20411;SDS011;10365;52.578;8.138;2024-01-30T08:50:20;8.57;;;5.80;;
20411;SDS011;10365;52.578;8.138;2024-01-30T08:52:46;13.40;;;6.90;;
20411;SDS011;10365;52.578;8.138;2024-01-30T08:55:11;11.82;;;6.40;;
20411;SDS011;10365;52.578;8.138;2024-01-30T08:57:36;13.05;;;6.32;;
20411;SDS011;10365;52.578;8.138;2024-01-30T09:00:02;11.43;;;6.15;;
20411;SDS011;10365;52.578;8.138;2024-01-30T09:02:31;11.80;;;6.10;;
20411;SDS011;10365;52.578;8.138;2024-01-30T09:04:57;10.00;;;5.75;;
20411;SDS011;10365;52.578;8.138;2024-01-30T09:07:22;14.63;;;5.90;;
20411;SDS011;10365;52.578;8.138;2024-01-30T09:09:47;13.60;;;6.38;;
20411;SDS011;10365;52.578;8.138;2024-01-30T09:12:14;14.68;;;8.32;;
20411;SDS011;10365;52.578;8.138;2024-01-30T09:14:39;10.73;;;6.78;;
20411;SDS011;10365;52.578;8.138;2024-01-30T09:17:08;13.52;;;7.32;;
20411;SDS011;10365;52.578;8.138;2024-01-30T09:19:33;11.32;;;6.53;;
20411;SDS011;10365;52.578;8.138;2024-01-30T09:21:58;12.10;;;6.50;;
20411;SDS011;10365;52.578;8.138;2024-01-30T09:24:24;10.63;;;6.90;;
20411;SDS011;10365;52.578;8.138;2024-01-30T09:26:50;12.23;;;6.30;;
20411;SDS011;10365;52.578;8.138;2024-01-30T09:29:15;11.55;;;6.45;;
20411;SDS011;10365;52.578;8.138;2024-01-30T09:31:47;12.80;;;6.72;;
20411;SDS011;10365;52.578;8.138;2024-01-30T09:34:13;9.13;;;6.38;;
20411;SDS011;10365;52.578;8.138;2024-01-30T09:36:38;13.90;;;6.93;;
20411;SDS011;10365;52.578;8.138;2024-01-30T09:39:04;9.25;;;6.07;;
20411;SDS011;10365;52.578;8.138;2024-01-30T09:41:29;12.52;;;6.43;;
20411;SDS011;10365;52.578;8.138;2024-01-30T09:43:57;13.02;;;6.65;;
20411;SDS011;10365;52.578;8.138;2024-01-30T09:46:22;10.80;;;6.88;;
20411;SDS011;10365;52.578;8.138;2024-01-30T09:48:52;14.95;;;7.95;;
20411;SDS011;10365;52.578;8.138;2024-01-30T09:51:18;11.45;;;6.95;;
20411;SDS011;10365;52.578;8.138;2024-01-30T09:53:44;15.30;;;8.32;;
20411;SDS011;10365;52.578;8.138;2024-01-30T09:56:09;13.73;;;6.95;;
20411;SDS011;10365;52.578;8.138;2024-01-30T09:58:36;10.25;;;6.70;;
20411;SDS011;10365;52.578;8.138;2024-01-30T10:01:01;13.63;;;7.10;;
20411;SDS011;10365;52.578;8.138;2024-01-30T10:03:27;11.10;;;6.57;;
20411;SDS011;10365;52.578;8.138;2024-01-30T10:05:53;10.68;;;6.28;;
20411;SDS011;10365;52.578;8.138;2024-01-30T10:08:18;13.43;;;6.70;;
20411;SDS011;10365;52.578;8.138;2024-01-30T10:10:47;10.68;;;6.45;;
20411;SDS011;10365;52.578;8.138;2024-01-30T10:13:12;11.80;;;5.90;;
20411;SDS011;10365;52.578;8.138;2024-01-30T10:15:37;12.88;;;6.55;;
20411;SDS011;10365;52.578;8.138;2024-01-30T10:18:04;10.60;;;5.35;;
20411;SDS011;10365;52.578;8.138;2024-01-30T10:20:31;10.27;;;6.25;;
20411;SDS011;10365;52.578;8.138;2024-01-30T10:22:57;14.30;;;6.40;;
20411;SDS011;10365;52.578;8.138;2024-01-30T10:25:23;11.20;;;6.07;;
20411;SDS011;10365;52.578;8.138;2024-01-30T10:27:52;11.32;;;7.20;;
20411;SDS011;10365;52.578;8.138;2024-01-30T10:30:17;12.02;;;6.88;;
20411;SDS011;10365;52.578;8.138;2024-01-30T10:32:43;13.65;;;6.78;;
20411;SDS011;10365;52.578;8.138;2024-01-30T10:35:09;12.73;;;6.25;;
20411;SDS011;10365;52.578;8.138;2024-01-30T10:37:34;11.43;;;6.82;;
20411;SDS011;10365;52.578;8.138;2024-01-30T10:40:02;9.48;;;6.15;;
20411;SDS011;10365;52.578;8.138;2024-01-30T10:42:28;12.10;;;6.22;;
20411;SDS011;10365;52.578;8.138;2024-01-30T10:44:57;10.55;;;6.63;;
20411;SDS011;10365;52.578;8.138;2024-01-30T10:47:29;10.10;;;6.82;;
20411;SDS011;10365;52.578;8.138;2024-01-30T10:49:55;10.15;;;6.20;;
20411;SDS011;10365;52.578;8.138;2024-01-30T10:52:20;9.73;;;6.30;;
20411;SDS011;10365;52.578;8.138;2024-01-30T10:54:47;10.73;;;6.07;;
20411;SDS011;10365;52.578;8.138;2024-01-30T10:57:15;11.38;;;6.00;;
20411;SDS011;10365;52.578;8.138;2024-01-30T10:59:40;11.73;;;6.45;;
20411;SDS011;10365;52.578;8.138;2024-01-30T11:02:06;9.52;;;5.90;;
20411;SDS011;10365;52.578;8.138;2024-01-30T11:04:38;12.70;;;5.93;;
20411;SDS011;10365;52.578;8.138;2024-01-30T11:07:25;14.88;;;6.55;;
20411;SDS011;10365;52.578;8.138;2024-01-30T11:09:49;13.57;;;6.18;;
20411;SDS011;10365;52.578;8.138;2024-01-30T11:12:16;14.38;;;6.35;;
20411;SDS011;10365;52.578;8.138;2024-01-30T11:14:41;10.80;;;6.63;;
20411;SDS011;10365;52.578;8.138;2024-01-30T11:17:06;15.90;;;6.47;;
20411;SDS011;10365;52.578;8.138;2024-01-30T11:19:32;11.57;;;6.43;;
20411;SDS011;10365;52.578;8.138;2024-01-30T11:21:58;10.10;;;6.05;;
20411;SDS011;10365;52.578;8.138;2024-01-30T11:24:25;12.63;;;6.88;;
20411;SDS011;10365;52.578;8.138;2024-01-30T11:26:55;9.38;;;5.95;;
20411;SDS011;10365;52.578;8.138;2024-01-30T11:29:24;10.38;;;6.45;;
20411;SDS011;10365;52.578;8.138;2024-01-30T11:31:54;10.43;;;6.45;;
20411;SDS011;10365;52.578;8.138;2024-01-30T11:34:19;13.52;;;6.82;;
20411;SDS011;10365;52.578;8.138;2024-01-30T11:36:45;12.27;;;6.40;;
20411;SDS011;10365;52.578;8.138;2024-01-30T11:39:14;13.02;;;6.57;;
20411;SDS011;10365;52.578;8.138;2024-01-30T11:41:41;15.43;;;7.68;;
20411;SDS011;10365;52.578;8.138;2024-01-30T11:44:06;14.25;;;7.28;;
20411;SDS011;10365;52.578;8.138;2024-01-30T11:46:32;10.63;;;6.55;;
20411;SDS011;10365;52.578;8.138;2024-01-30T11:48:57;12.45;;;6.97;;
20411;SDS011;10365;52.578;8.138;2024-01-30T11:51:23;11.82;;;6.57;;
20411;SDS011;10365;52.578;8.138;2024-01-30T11:53:49;12.57;;;6.10;;
20411;SDS011;10365;52.578;8.138;2024-01-30T11:56:15;12.02;;;6.45;;
20411;SDS011;10365;52.578;8.138;2024-01-30T11:58:42;14.98;;;7.32;;
20411;SDS011;10365;52.578;8.138;2024-01-30T12:01:07;13.95;;;6.95;;
20411;SDS011;10365;52.578;8.138;2024-01-30T12:03:33;15.02;;;7.05;;
20411;SDS011;10365;52.578;8.138;2024-01-30T12:05:58;9.75;;;6.32;;
20411;SDS011;10365;52.578;8.138;2024-01-30T12:08:23;11.10;;;6.45;;
20411;SDS011;10365;52.578;8.138;2024-01-30T12:10:58;15.85;;;7.65;;
20411;SDS011;10365;52.578;8.138;2024-01-30T12:13:24;14.38;;;7.82;;
20411;SDS011;10365;52.578;8.138;2024-01-30T12:15:50;12.75;;;6.78;;
20411;SDS011;10365;52.578;8.138;2024-01-30T12:18:18;12.20;;;7.38;;
20411;SDS011;10365;52.578;8.138;2024-01-30T12:20:43;12.07;;;6.70;;
20411;SDS011;10365;52.578;8.138;2024-01-30T12:23:09;11.10;;;7.07;;
20411;SDS011;10365;52.578;8.138;2024-01-30T12:25:36;14.88;;;6.97;;
20411;SDS011;10365;52.578;8.138;2024-01-30T12:28:01;13.15;;;7.30;;
20411;SDS011;10365;52.578;8.138;2024-01-30T12:30:27;10.32;;;6.95;;
20411;SDS011;10365;52.578;8.138;2024-01-30T12:32:53;15.05;;;7.43;;
20411;SDS011;10365;52.578;8.138;2024-01-30T12:35:19;11.70;;;7.80;;
20411;SDS011;10365;52.578;8.138;2024-01-30T12:37:46;12.77;;;7.22;;
20411;SDS011;10365;52.578;8.138;2024-01-30T12:40:11;13.38;;;7.40;;
20411;SDS011;10365;52.578;8.138;2024-01-30T12:42:42;16.23;;;7.88;;
20411;SDS011;10365;52.578;8.138;2024-01-30T12:45:08;14.48;;;7.60;;
20411;SDS011;10365;52.578;8.138;2024-01-30T12:47:34;13.65;;;7.43;;
20411;SDS011;10365;52.578;8.138;2024-01-30T12:50:00;12.73;;;7.47;;
20411;SDS011;10365;52.578;8.138;2024-01-30T12:52:26;12.15;;;7.00;;
20411;SDS011;10365;52.578;8.138;2024-01-30T12:54:51;13.15;;;6.82;;
20411;SDS011;10365;52.578;8.138;2024-01-30T12:57:17;12.63;;;7.78;;
20411;SDS011;10365;52.578;8.138;2024-01-30T12:59:46;13.02;;;7.53;;
20411;SDS011;10365;52.578;8.138;2024-01-30T13:02:14;12.63;;;7.40;;
20411;SDS011;10365;52.578;8.138;2024-01-30T13:04:40;13.07;;;7.60;;
20411;SDS011;10365;52.578;8.138;2024-01-30T13:07:06;15.18;;;7.20;;
20411;SDS011;10365;52.578;8.138;2024-01-30T13:09:32;11.88;;;7.45;;
20411;SDS011;10365;52.578;8.138;2024-01-30T13:11:58;12.35;;;7.50;;
20411;SDS011;10365;52.578;8.138;2024-01-30T13:14:23;13.43;;;7.60;;
20411;SDS011;10365;52.578;8.138;2024-01-30T13:16:49;13.10;;;7.75;;
20411;SDS011;10365;52.578;8.138;2024-01-30T13:19:14;12.40;;;7.32;;
20411;SDS011;10365;52.578;8.138;2024-01-30T13:21:39;17.83;;;9.75;;
20411;SDS011;10365;52.578;8.138;2024-01-30T13:24:05;14.23;;;8.05;;
20411;SDS011;10365;52.578;8.138;2024-01-30T13:26:31;13.10;;;7.40;;
20411;SDS011;10365;52.578;8.138;2024-01-30T13:28:57;15.48;;;7.57;;
20411;SDS011;10365;52.578;8.138;2024-01-30T13:31:22;17.25;;;7.97;;
20411;SDS011;10365;52.578;8.138;2024-01-30T13:33:48;15.68;;;7.72;;
20411;SDS011;10365;52.578;8.138;2024-01-30T13:36:14;14.75;;;8.55;;
20411;SDS011;10365;52.578;8.138;2024-01-30T13:38:39;16.58;;;8.13;;
20411;SDS011;10365;52.578;8.138;2024-01-30T13:41:04;20.52;;;8.75;;
20411;SDS011;10365;52.578;8.138;2024-01-30T13:43:30;13.98;;;7.63;;
20411;SDS011;10365;52.578;8.138;2024-01-30T13:45:55;16.48;;;8.07;;
20411;SDS011;10365;52.578;8.138;2024-01-30T13:48:20;18.67;;;8.15;;
20411;SDS011;10365;52.578;8.138;2024-01-30T13:50:46;14.00;;;8.15;;
20411;SDS011;10365;52.578;8.138;2024-01-30T13:53:12;14.13;;;7.93;;
20411;SDS011;10365;52.578;8.138;2024-01-30T13:55:41;15.60;;;7.78;;
20411;SDS011;10365;52.578;8.138;2024-01-30T13:58:06;11.13;;;7.57;;
20411;SDS011;10365;52.578;8.138;2024-01-30T14:00:32;13.77;;;8.10;;
20411;SDS011;10365;52.578;8.138;2024-01-30T14:02:59;12.57;;;7.10;;
20411;SDS011;10365;52.578;8.138;2024-01-30T14:05:24;11.90;;;7.35;;
20411;SDS011;10365;52.578;8.138;2024-01-30T14:07:50;11.38;;;7.30;;
20411;SDS011;10365;52.578;8.138;2024-01-30T14:10:16;15.90;;;7.18;;
20411;SDS011;10365;52.578;8.138;2024-01-30T14:12:42;12.40;;;6.55;;
20411;SDS011;10365;52.578;8.138;2024-01-30T14:15:07;11.02;;;7.47;;
20411;SDS011;10365;52.578;8.138;2024-01-30T14:17:33;11.75;;;7.30;;
20411;SDS011;10365;52.578;8.138;2024-01-30T14:19:58;14.40;;;7.53;;